Time;durP1;ratioP1;P1;durP2;ratioP2;P2;SDS_P1;SDS_P2;PMS_P1;PMS_P2;Temp;Humidity;BMP_temperature;BMP_pressure;BME280_temperature;BME280_humidity;BME280_pressure;Samples;Min_cycle;Max_cycle;Signal;HPM_P1;HPM_P2
2023/02/20 00:01:46;;;;;;;4.25;2.10;;;9.60;76.30;;;;;;5012725;28;20088;-60
2023/02/20 00:04:11;;;;;;;4.00;2.13;;;9.60;76.40;;;;;;5010419;28;20066;-60
2023/02/20 00:06:37;;;;;;;4.05;2.08;;;9.60;76.40;;;;;;5017069;28;20109;-61
2023/02/20 00:09:02;;;;;;;2.95;2.10;;;9.60;76.40;;;;;;5012813;28;20049;-60
2023/02/20 00:11:29;;;;;;;3.03;1.83;;;9.60;76.20;;;;;;5013393;28;20041;-61
2023/02/20 00:13:54;;;;;;;2.83;1.80;;;9.60;76.20;;;;;;5015439;28;20037;-61
2023/02/20 00:16:20;;;;;;;2.78;1.77;;;9.60;76.10;;;;;;5011175;28;20029;-61
2023/02/20 00:18:45;;;;;;;4.38;1.77;;;9.60;76.10;;;;;;5011632;28;20045;-59
2023/02/20 00:21:11;;;;;;;3.05;1.70;;;9.70;76.10;;;;;;5012550;28;20107;-61
2023/02/20 00:23:37;;;;;;;3.55;1.67;;;9.70;76.10;;;;;;5016428;28;20037;-60
2023/02/20 00:26:02;;;;;;;3.25;2.10;;;9.70;76.00;;;;;;5018740;28;20061;-61
2023/02/20 00:28:28;;;;;;;3.78;2.00;;;9.70;76.00;;;;;;5018099;28;20112;-61
2023/02/20 00:30:54;;;;;;;6.45;2.05;;;9.70;75.90;;;;;;5018143;28;20444;-59
2023/02/20 00:33:20;;;;;;;2.90;1.83;;;9.60;76.60;;;;;;5016735;28;20033;-61
2023/02/20 00:35:46;;;;;;;3.17;2.00;;;9.70;75.80;;;;;;5019801;28;20041;-60
2023/02/20 00:38:11;;;;;;;4.22;2.05;;;9.70;75.70;;;;;;5016664;28;20116;-60
2023/02/20 00:40:37;;;;;;;3.45;1.90;;;9.70;75.60;;;;;;5018856;28;20602;-62
2023/02/20 00:43:02;;;;;;;4.68;2.00;;;9.70;75.60;;;;;;5016437;28;20128;-59
2023/02/20 00:45:28;;;;;;;2.80;1.70;;;9.70;75.50;;;;;;5018882;28;20038;-61
2023/02/20 00:47:53;;;;;;;1.90;1.70;;;9.70;75.60;;;;;;5022037;28;20045;-59
2023/02/20 00:50:19;;;;;;;2.65;1.60;;;9.60;75.60;;;;;;5017858;28;20619;-61
2023/02/20 00:52:45;;;;;;;2.88;1.80;;;9.60;75.60;;;;;;5019230;28;20042;-60
2023/02/20 00:55:10;;;;;;;4.97;2.30;;;9.60;75.50;;;;;;5019094;28;20034;-59
2023/02/20 00:57:36;;;;;;;3.20;1.85;;;9.60;75.60;;;;;;5019950;28;20045;-60
2023/02/20 01:00:02;;;;;;;4.25;2.00;;;9.60;75.60;;;;;;5020217;28;20489;-59
2023/02/20 01:02:28;;;;;;;2.70;1.77;;;9.60;75.60;;;;;;5014853;28;20070;-61
2023/02/20 01:04:55;;;;;;;2.63;1.65;;;9.60;75.50;;;;;;5016160;28;20033;-61
2023/02/20 01:07:21;;;;;;;2.47;2.05;;;9.60;75.40;;;;;;5019418;28;20037;-59
2023/02/20 01:09:46;;;;;;;2.88;1.88;;;9.60;75.30;;;;;;5018041;28;20037;-61
2023/02/20 01:12:12;;;;;;;3.80;2.10;;;9.60;75.40;;;;;;5015313;28;20042;-59
2023/02/20 01:14:37;;;;;;;3.40;1.55;;;9.60;75.30;;;;;;5017805;28;20288;-61
2023/02/20 01:17:03;;;;;;;3.38;1.85;;;9.60;75.30;;;;;;5013889;28;20033;-61
2023/02/20 01:19:28;;;;;;;2.83;1.70;;;9.70;75.30;;;;;;5016171;28;20048;-60
2023/02/20 01:21:54;;;;;;;1.83;1.60;;;9.70;75.10;;;;;;5018364;28;20045;-61
2023/02/20 01:24:20;;;;;;;4.10;1.90;;;9.70;75.10;;;;;;5015140;28;20088;-61
2023/02/20 01:26:47;;;;;;;3.72;1.60;;;9.60;74.90;;;;;;5017776;28;20041;-62
2023/02/20 01:29:14;;;;;;;3.80;1.70;;;9.60;74.90;;;;;;5015887;28;20759;-62
2023/02/20 01:31:45;;;;;;;2.47;1.63;;;9.70;74.80;;;;;;5018137;28;20658;-62
2023/02/20 01:34:10;;;;;;;2.40;1.75;;;9.60;74.80;;;;;;5015789;28;20091;-61
2023/02/20 01:36:36;;;;;;;2.63;1.83;;;9.60;74.90;;;;;;5016602;28;20037;-61
2023/02/20 01:39:02;;;;;;;2.85;1.75;;;9.60;74.90;;;;;;5017745;28;20030;-62
2023/02/20 01:41:28;;;;;;;3.75;1.80;;;9.60;74.90;;;;;;5018035;28;20033;-60
2023/02/20 01:43:53;;;;;;;3.25;1.80;;;9.60;74.90;;;;;;5015231;28;20129;-61
2023/02/20 01:46:28;;;;;;;4.65;2.08;;;9.60;74.90;;;;;;5014468;28;20065;-61
2023/02/20 01:49:12;;;;;;;3.92;1.90;;;9.60;75.00;;;;;;5016273;28;20041;-61
2023/02/20 01:51:45;;;;;;;2.80;1.70;;;9.60;74.90;;;;;;5017599;28;20099;-60
2023/02/20 01:54:17;;;;;;;2.00;1.80;;;9.60;74.90;;;;;;5016716;28;20029;-61
2023/02/20 01:56:44;;;;;;;4.82;1.65;;;9.70;74.90;;;;;;5015899;28;20058;-61
2023/02/20 01:59:11;;;;;;;4.43;1.90;;;9.60;74.80;;;;;;5018195;28;20033;-60
2023/02/20 02:01:37;;;;;;;4.38;1.83;;;9.60;74.70;;;;;;5019634;28;20036;-61
2023/02/20 02:04:08;;;;;;;2.13;1.80;;;9.60;74.70;;;;;;5014713;28;20133;-61
2023/02/20 02:06:40;;;;;;;2.95;1.88;;;9.60;74.60;;;;;;5019179;28;20048;-60
2023/02/20 02:09:40;;;;;;;4.18;2.08;;;9.60;74.60;;;;;;5015244;28;20042;-59
2023/02/20 02:12:06;;;;;;;3.80;1.63;;;9.60;74.50;;;;;;5021218;28;20041;-60
2023/02/20 02:14:32;;;;;;;2.95;1.60;;;9.60;74.50;;;;;;5013284;28;20341;-61
2023/02/20 02:17:30;;;;;;;3.35;1.83;;;9.60;74.60;;;;;;5013435;28;20476;-60
2023/02/20 02:20:17;;;;;;;3.15;1.35;;;9.60;74.60;;;;;;4999572;28;20390;-60
2023/02/20 02:22:51;;;;;;;2.40;1.73;;;9.60;74.60;;;;;;5013922;28;20528;-59
2023/02/20 02:25:24;;;;;;;2.03;1.63;;;9.60;74.40;;;;;;5015367;28;20049;-61
2023/02/20 02:27:58;;;;;;;3.33;1.60;;;9.60;74.30;;;;;;5017923;28;20521;-62
2023/02/20 02:30:39;;;;;;;2.60;1.73;;;9.60;74.40;;;;;;5016277;28;20042;-60
2023/02/20 02:33:29;;;;;;;3.13;1.60;;;9.60;74.20;;;;;;5015931;28;20026;-60
2023/02/20 02:36:03;;;;;;;2.95;1.42;;;9.60;74.20;;;;;;5016709;28;20037;-61
2023/02/20 02:38:36;;;;;;;3.97;1.80;;;9.60;74.20;;;;;;5012887;28;20129;-60
2023/02/20 02:41:17;;;;;;;3.85;1.75;;;9.60;74.20;;;;;;5014110;28;20042;-60
2023/02/20 02:44:07;;;;;;;3.05;2.22;;;9.60;74.20;;;;;;5016928;28;20048;-60
2023/02/20 02:46:42;;;;;;;5.40;1.88;;;9.60;75.00;;;;;;5014282;28;20497;-61
2023/02/20 02:49:23;;;;;;;4.35;1.70;;;9.60;74.00;;;;;;5010911;28;20451;-61
2023/02/20 02:51:51;;;;;;;2.50;1.83;;;9.50;74.20;;;;;;5014317;28;20234;-60
2023/02/20 02:54:25;;;;;;;5.15;2.17;;;9.50;74.20;;;;;;5012025;28;20061;-60
2023/02/20 02:56:52;;;;;;;6.43;2.30;;;9.50;74.20;;;;;;5013210;28;20033;-61
2023/02/20 02:59:31;;;;;;;4.60;2.17;;;9.50;74.20;;;;;;5015072;28;20571;-61
2023/02/20 03:02:04;;;;;;;3.85;1.92;;;9.50;74.20;;;;;;5013318;28;20037;-61
2023/02/20 03:04:31;;;;;;;4.55;2.05;;;9.40;74.00;;;;;;5012684;28;20048;-60
2023/02/20 03:07:02;;;;;;;4.82;2.35;;;9.40;73.90;;;;;;5015502;28;20393;-60
2023/02/20 03:09:33;;;;;;;4.13;2.00;;;9.40;73.90;;;;;;5013715;28;20064;-61
2023/02/20 03:12:01;;;;;;;2.78;1.40;;;9.40;73.90;;;;;;5017504;28;20087;-61
2023/02/20 03:18:09;;;;;;;3.65;1.77;;;9.40;73.90;;;;;;5013173;28;20044;-61
2023/02/20 03:20:41;;;;;;;2.00;1.60;;;9.30;73.70;;;;;;5011980;28;20074;-61
2023/02/20 03:23:11;;;;;;;3.92;1.77;;;9.30;73.70;;;;;;5011797;28;20052;-60
2023/02/20 03:25:47;;;;;;;1.95;1.30;;;9.30;73.70;;;;;;5014077;28;20124;-62
2023/02/20 03:28:22;;;;;;;4.50;2.00;;;9.30;73.70;;;;;;5015900;28;20120;-59
2023/02/20 03:30:47;;;;;;;;;;;9.20;73.60;;;;;;5016137;28;20030;-60
2023/02/20 03:44:33;;;;;;;2.53;1.60;;;9.00;73.70;;;;;;5014230;28;20457;-61
2023/02/20 03:47:01;;;;;;;4.47;1.65;;;8.90;73.70;;;;;;5017010;28;20065;-61
2023/02/20 03:49:35;;;;;;;5.65;1.90;;;8.90;73.90;;;;;;5014525;28;20065;-61
2023/02/20 03:52:02;;;;;;;3.13;1.50;;;8.80;73.90;;;;;;5014416;28;20108;-61
2023/02/20 03:54:29;;;;;;;2.90;1.40;;;8.80;74.00;;;;;;5015072;28;20041;-61
2023/02/20 03:57:36;;;;;;;3.08;1.52;;;8.80;74.00;;;;;;5014368;28;20117;-60
2023/02/20 04:00:10;;;;;;;2.67;1.55;;;8.80;74.10;;;;;;4978446;28;20050;-61
2023/02/20 04:02:41;;;;;;;3.45;1.70;;;8.80;74.20;;;;;;5007289;28;20048;-59
2023/02/20 04:05:14;;;;;;;4.38;1.52;;;8.70;74.10;;;;;;5014451;28;20116;-60
2023/02/20 04:07:42;;;;;;;3.10;2.13;;;8.70;74.20;;;;;;5009992;28;20054;-60
2023/02/20 04:10:15;;;;;;;8.32;4.53;;;8.70;74.20;;;;;;5015797;28;20273;-59
2023/02/20 04:12:44;;;;;;;10.00;6.82;;;8.70;74.30;;;;;;5012407;28;20050;-59
2023/02/20 04:15:11;;;;;;;10.60;4.93;;;8.70;74.30;;;;;;5013582;28;20120;-60
2023/02/20 04:17:44;;;;;;;5.53;3.90;;;8.60;74.20;;;;;;5014047;28;20563;-57
2023/02/20 04:20:10;;;;;;;3.13;2.33;;;8.60;74.20;;;;;;5013486;28;20045;-61
2023/02/20 04:22:40;;;;;;;4.03;1.88;;;8.60;74.30;;;;;;5014419;28;20033;-60
2023/02/20 04:25:21;;;;;;;3.70;1.58;;;8.50;74.20;;;;;;5009604;28;20041;-60
2023/02/20 04:27:47;;;;;;;4.88;2.00;;;8.50;74.20;;;;;;5010327;28;20561;-61
2023/02/20 04:30:13;;;;;;;2.95;1.40;;;8.50;74.20;;;;;;5014036;28;20060;-61
2023/02/20 04:32:38;;;;;;;4.90;1.85;;;8.50;74.20;;;;;;5010432;28;20497;-62
2023/02/20 04:35:04;;;;;;;2.22;1.80;;;8.40;75.20;;;;;;5010116;28;20394;-61
2023/02/20 04:37:30;;;;;;;4.22;1.92;;;8.40;74.60;;;;;;5012807;28;20065;-62
2023/02/20 04:39:55;;;;;;;2.40;1.52;;;8.30;74.50;;;;;;5010116;28;20040;-62
2023/02/20 04:42:21;;;;;;;4.70;2.20;;;8.30;74.60;;;;;;5014244;28;20046;-61
2023/02/20 04:44:46;;;;;;;3.25;2.60;;;8.30;74.60;;;;;;5014734;28;20087;-62
2023/02/20 04:47:15;;;;;;;3.97;2.83;;;8.30;74.70;;;;;;5014336;28;20410;-62
2023/02/20 04:49:41;;;;;;;4.32;2.00;;;8.20;74.80;;;;;;5010584;28;20441;-62
2023/02/20 04:52:06;;;;;;;5.38;1.88;;;8.20;74.80;;;;;;5010610;28;20116;-61
2023/02/20 04:54:32;;;;;;;5.75;2.15;;;8.20;74.80;;;;;;5012354;28;20063;-59
2023/02/20 04:56:57;;;;;;;5.43;1.95;;;8.20;74.90;;;;;;5014965;28;20041;-61
2023/02/20 04:59:24;;;;;;;4.18;1.90;;;8.20;74.90;;;;;;5013659;28;20141;-60
2023/02/20 05:01:50;;;;;;;5.68;4.13;;;8.20;74.90;;;;;;5017220;28;20332;-60
2023/02/20 05:04:17;;;;;;;5.82;2.70;;;8.10;74.90;;;;;;5013149;28;20044;-59
2023/02/20 05:06:47;;;;;;;3.42;1.70;;;8.10;75.00;;;;;;5014452;28;20049;-59
2023/02/20 05:09:13;;;;;;;3.70;1.75;;;8.10;75.00;;;;;;5015154;28;20034;-60
2023/02/20 05:11:39;;;;;;;3.55;1.80;;;8.10;74.90;;;;;;5016636;28;20037;-59
2023/02/20 05:14:05;;;;;;;5.03;2.25;;;8.10;74.90;;;;;;5017508;28;20444;-61
2023/02/20 05:16:31;;;;;;;4.60;2.97;;;8.10;74.90;;;;;;5014514;28;20059;-61
2023/02/20 05:18:57;;;;;;;3.60;2.38;;;8.10;74.90;;;;;;5015945;28;20663;-62
2023/02/20 05:24:06;;;;;;;4.07;2.00;;;8.00;74.80;;;;;;5017157;28;20052;-59
2023/02/20 05:26:32;;;;;;;4.20;2.38;;;8.00;74.90;;;;;;5014727;28;20297;-60
2023/02/20 05:28:57;;;;;;;3.55;2.10;;;8.00;74.80;;;;;;5017228;28;20095;-61
2023/02/20 05:31:23;;;;;;;4.18;2.10;;;8.00;74.80;;;;;;5010090;28;20515;-61
2023/02/20 05:33:49;;;;;;;4.25;2.17;;;7.90;74.80;;;;;;5014324;28;20378;-60
2023/02/20 05:36:15;;;;;;;4.65;2.10;;;7.90;74.80;;;;;;5012295;28;20046;-61
2023/02/20 05:38:46;;;;;;;3.78;2.00;;;7.90;74.80;;;;;;5016212;28;20120;-60
2023/02/20 05:41:14;;;;;;;3.05;1.98;;;7.90;74.90;;;;;;5018904;28;20095;-60
2023/02/20 05:43:39;;;;;;;4.68;2.20;;;7.90;74.90;;;;;;5018066;28;20045;-60
2023/02/20 05:46:05;;;;;;;3.38;2.22;;;7.80;74.70;;;;;;5019022;28;20494;-59
2023/02/20 05:48:30;;;;;;;3.17;2.25;;;7.80;74.90;;;;;;5023574;28;20037;-61
2023/02/20 05:50:56;;;;;;;2.63;2.05;;;7.70;74.80;;;;;;5018440;28;20041;-61
2023/02/20 05:53:22;;;;;;;5.47;2.28;;;7.70;74.90;;;;;;5023657;28;20030;-59
2023/02/20 05:55:47;;;;;;;4.03;1.73;;;7.70;74.90;;;;;;5019128;28;20026;-60
2023/02/20 05:58:13;;;;;;;3.42;1.95;;;7.70;75.10;;;;;;5016982;28;20457;-59
2023/02/20 06:00:39;;;;;;;3.22;1.90;;;7.60;75.00;;;;;;5018997;28;20072;-59
2023/02/20 06:03:09;;;;;;;3.13;1.88;;;7.60;75.10;;;;;;5018332;28;20040;-60
2023/02/20 06:05:34;;;;;;;6.20;2.05;;;7.60;75.10;;;;;;5019165;28;20502;-62
2023/02/20 06:08:00;;;;;;;5.05;2.28;;;7.60;75.10;;;;;;5017226;28;20182;-56
2023/02/20 06:10:26;;;;;;;4.07;2.15;;;7.60;75.30;;;;;;5022872;28;20037;-57
2023/02/20 06:12:51;;;;;;;4.70;2.00;;;7.60;75.40;;;;;;5018284;28;20045;-62
2023/02/20 06:15:17;;;;;;;5.50;2.20;;;7.60;75.50;;;;;;5017858;28;20611;-61
2023/02/20 06:17:42;;;;;;;4.50;2.40;;;7.60;75.60;;;;;;5018418;28;20044;-59
2023/02/20 06:20:08;;;;;;;4.40;2.53;;;7.60;75.70;;;;;;5016955;28;20125;-59
2023/02/20 06:22:33;;;;;;;3.53;2.17;;;7.60;75.80;;;;;;5017043;28;20048;-59
2023/02/20 06:24:59;;;;;;;4.55;2.50;;;7.60;75.80;;;;;;5017317;28;20033;-60
2023/02/20 06:27:25;;;;;;;6.35;2.65;;;7.60;75.80;;;;;;5017596;28;20587;-59
2023/02/20 06:29:50;;;;;;;4.53;2.47;;;7.60;75.80;;;;;;5018236;28;20041;-61
2023/02/20 06:32:16;;;;;;;6.47;2.70;;;7.50;75.80;;;;;;5016751;28;20045;-60
2023/02/20 06:34:45;;;;;;;5.03;2.55;;;7.60;75.90;;;;;;5017398;28;20132;-60
2023/02/20 06:37:11;;;;;;;4.45;2.35;;;7.50;75.80;;;;;;5018917;28;20413;-60
2023/02/20 06:39:38;;;;;;;4.38;2.70;;;7.50;75.80;;;;;;5017492;28;20402;-59
2023/02/20 06:42:05;;;;;;;5.20;2.50;;;7.50;75.90;;;;;;5017403;28;20041;-61
2023/02/20 06:44:32;;;;;;;5.05;2.50;;;7.50;76.00;;;;;;5018105;28;20095;-61
2023/02/20 06:46:58;;;;;;;4.68;2.40;;;7.50;76.00;;;;;;5019134;28;20069;-59
2023/02/20 06:49:24;;;;;;;3.75;2.40;;;7.50;76.10;;;;;;5017952;28;20116;-60
2023/02/20 06:51:53;;;;;;;3.92;2.17;;;7.50;76.10;;;;;;5017092;28;20477;-60
2023/02/20 06:54:20;;;;;;;5.20;2.40;;;7.50;76.30;;;;;;5017431;28;20312;-59
2023/02/20 06:56:46;;;;;;;6.32;2.33;;;7.50;76.30;;;;;;5017618;28;20034;-61
2023/02/20 06:59:13;;;;;;;6.15;2.55;;;7.50;76.30;;;;;;5017462;28;20492;-61
2023/02/20 07:01:40;;;;;;;4.00;2.20;;;7.50;76.30;;;;;;5016873;28;20091;-62
2023/02/20 07:04:09;;;;;;;7.13;2.67;;;7.50;76.30;;;;;;5017899;28;20032;-61
2023/02/20 07:06:36;;;;;;;6.88;2.42;;;7.50;76.30;;;;;;5015996;28;20237;-61
2023/02/20 07:09:02;;;;;;;10.85;3.90;;;7.50;76.30;;;;;;5016587;28;20064;-59
2023/02/20 07:11:27;;;;;;;11.20;5.03;;;7.50;77.20;;;;;;5017733;28;20033;-59
2023/02/20 07:13:53;;;;;;;6.65;3.75;;;7.50;76.30;;;;;;5018290;28;20029;-60
2023/02/20 07:16:19;;;;;;;6.47;3.22;;;7.50;76.30;;;;;;5017410;28;20482;-59
2023/02/20 07:18:44;;;;;;;5.82;3.25;;;7.50;76.30;;;;;;5016574;28;20505;-59
2023/02/20 07:21:10;;;;;;;4.57;2.80;;;7.50;76.30;;;;;;5016995;28;20044;-59
2023/02/20 07:23:36;;;;;;;4.40;2.70;;;7.40;76.40;;;;;;5016588;28;20061;-61
2023/02/20 07:26:01;;;;;;;5.57;2.40;;;7.40;76.50;;;;;;5018402;28;20340;-60
2023/02/20 07:28:27;;;;;;;5.95;2.55;;;7.40;76.60;;;;;;5015647;28;20480;-60
2023/02/20 07:30:53;;;;;;;4.32;2.65;;;7.40;76.80;;;;;;5017036;28;20516;-60
2023/02/20 07:33:18;;;;;;;6.38;2.70;;;7.40;77.00;;;;;;5016779;28;20034;-60
2023/02/20 07:35:44;;;;;;;5.28;2.85;;;7.40;77.10;;;;;;5016786;28;20058;-60
2023/02/20 07:38:10;;;;;;;5.20;2.50;;;7.40;77.30;;;;;;5015850;28;20041;-58
2023/02/20 07:40:36;;;;;;;4.50;2.90;;;7.50;77.50;;;;;;5016007;28;20037;-59
2023/02/20 07:43:01;;;;;;;4.32;2.83;;;7.50;77.70;;;;;;5015950;28;20460;-59
2023/02/20 07:45:27;;;;;;;6.13;3.15;;;7.50;77.80;;;;;;5016323;28;20160;-61
2023/02/20 07:47:53;;;;;;;5.68;3.05;;;7.60;78.00;;;;;;5015323;28;20513;-60
2023/02/20 07:50:18;;;;;;;5.65;3.03;;;7.70;78.30;;;;;;5016633;28;20402;-61
2023/02/20 07:52:44;;;;;;;3.85;2.80;;;7.70;78.40;;;;;;5015772;28;20196;-60
2023/02/20 07:55:14;;;;;;;5.70;3.00;;;7.80;78.40;;;;;;5016968;28;20068;-61
2023/02/20 07:57:39;;;;;;;5.05;3.03;;;7.90;78.60;;;;;;5016119;28;20034;-61
2023/02/20 08:00:06;;;;;;;4.55;2.90;;;7.90;78.60;;;;;;5016478;28;20040;-62
2023/02/20 08:02:32;;;;;;;5.95;3.00;;;8.00;79.50;;;;;;5017171;28;20115;-60
2023/02/20 08:04:57;;;;;;;6.43;3.38;;;8.10;78.70;;;;;;5016942;28;20053;-62
2023/02/20 08:07:23;;;;;;;3.47;3.00;;;8.10;78.50;;;;;;5015674;28;20038;-59
2023/02/20 08:09:48;;;;;;;6.22;3.30;;;8.20;78.50;;;;;;5017516;28;20524;-60
2023/02/20 08:12:14;;;;;;;4.40;3.30;;;8.30;78.50;;;;;;5021108;28;20034;-61
2023/02/20 08:14:40;;;;;;;5.68;3.63;;;8.40;78.50;;;;;;5016036;28;20104;-61
2023/02/20 08:17:06;;;;;;;6.15;3.70;;;8.40;78.40;;;;;;5016701;28;20051;-61
2023/02/20 08:19:31;;;;;;;5.57;3.42;;;8.50;78.30;;;;;;5015364;28;20125;-59
2023/02/20 08:21:57;;;;;;;4.97;3.30;;;8.60;78.30;;;;;;5015157;28;20033;-62
2023/02/20 08:24:22;;;;;;;5.32;3.22;;;8.60;78.10;;;;;;5016403;28;20033;-61
2023/02/20 08:26:48;;;;;;;5.22;3.25;;;8.70;78.00;;;;;;5016680;28;20052;-60
2023/02/20 08:29:15;;;;;;;4.65;3.30;;;8.80;77.90;;;;;;5016749;28;20401;-60
2023/02/20 08:31:41;;;;;;;6.10;3.33;;;8.80;77.80;;;;;;5015949;28;20037;-60
2023/02/20 08:34:08;;;;;;;6.38;3.50;;;8.90;77.70;;;;;;5016456;28;20042;-61
2023/02/20 08:36:34;;;;;;;5.18;3.20;;;8.90;77.60;;;;;;5015571;28;20034;-60
2023/02/20 08:39:01;;;;;;;7.07;2.95;;;9.00;77.50;;;;;;5017361;28;20041;-60
2023/02/20 08:41:27;;;;;;;4.65;3.00;;;9.00;78.10;;;;;;5015530;28;20041;-61
2023/02/20 08:43:54;;;;;;;6.22;3.13;;;9.10;77.20;;;;;;5018279;28;20034;-61
2023/02/20 08:46:20;;;;;;;9.10;3.70;;;9.20;77.10;;;;;;5020381;28;20082;-59
2023/02/20 08:48:45;;;;;;;4.35;3.25;;;9.30;77.90;;;;;;5020398;28;20547;-60
2023/02/20 08:51:11;;;;;;;3.88;3.20;;;9.30;76.80;;;;;;5019796;28;20405;-59
2023/02/20 08:53:38;;;;;;;4.90;2.92;;;9.40;76.70;;;;;;5019600;28;20508;-59
2023/02/20 08:56:05;;;;;;;4.70;2.90;;;9.50;76.50;;;;;;5019421;28;20415;-61
2023/02/20 08:58:30;;;;;;;5.32;2.85;;;9.60;77.40;;;;;;5018352;28;20029;-59
2023/02/20 09:00:56;;;;;;;5.07;3.00;;;9.70;76.40;;;;;;5021250;28;20550;-61
2023/02/20 09:03:22;;;;;;;6.38;3.00;;;9.80;76.30;;;;;;5017195;28;20044;-58
2023/02/20 09:05:48;;;;;;;3.65;3.08;;;9.80;75.80;;;;;;5021483;28;20168;-59
2023/02/20 09:08:14;;;;;;;4.25;3.10;;;9.90;75.60;;;;;;5021640;28;20034;-59
2023/02/20 09:10:39;;;;;;;8.30;2.97;;;9.90;75.30;;;;;;5023547;28;20049;-59
2023/02/20 09:13:05;;;;;;;5.72;2.83;;;10.00;75.30;;;;;;5021757;28;20037;-60
2023/02/20 09:15:37;;;;;;;5.28;2.90;;;10.00;75.10;;;;;;5022389;28;20091;-61
2023/02/20 09:18:04;;;;;;;7.60;3.08;;;10.10;75.10;;;;;;5022157;28;20026;-60
2023/02/20 09:20:29;;;;;;;4.88;3.28;;;10.20;75.10;;;;;;5021841;28;20485;-60
2023/02/20 09:22:58;;;;;;;4.50;3.28;;;10.20;74.80;;;;;;5020635;28;20045;-61
2023/02/20 09:25:23;;;;;;;6.22;3.20;;;10.30;74.60;;;;;;5022313;28;20029;-61
2023/02/20 09:27:49;;;;;;;5.00;3.25;;;10.30;74.50;;;;;;5020874;28;20412;-61
2023/02/20 09:30:18;;;;;;;3.55;2.83;;;10.40;74.20;;;;;;5021700;28;20137;-60
2023/02/20 09:32:46;;;;;;;5.35;3.55;;;10.40;74.20;;;;;;5020556;28;20037;-59
2023/02/20 09:35:18;;;;;;;6.32;3.40;;;10.50;74.20;;;;;;5021490;28;20038;-61
2023/02/20 09:37:44;;;;;;;5.10;3.20;;;10.50;74.00;;;;;;5021239;28;20049;-61
2023/02/20 09:40:11;;;;;;;4.38;3.03;;;10.60;74.00;;;;;;5020951;28;20095;-61
2023/02/20 09:43:14;;;;;;;6.25;3.10;;;10.60;74.00;;;;;;5020814;28;20485;-59
2023/02/20 09:45:46;;;;;;;3.95;2.92;;;10.70;73.70;;;;;;4989307;28;20594;-60
2023/02/20 09:48:15;;;;;;;6.18;2.70;;;10.80;73.40;;;;;;5020789;28;20034;-60
2023/02/20 09:50:58;;;;;;;5.28;2.83;;;10.80;73.00;;;;;;5021013;28;20065;-61
2023/02/20 09:53:29;;;;;;;5.18;3.13;;;10.90;72.90;;;;;;5021140;28;20034;-61
2023/02/20 09:55:57;;;;;;;4.28;2.67;;;10.90;72.50;;;;;;5020091;28;20042;-60
2023/02/20 09:58:41;;;;;;;2.92;2.28;;;11.00;72.60;;;;;;5020537;28;20041;-60
2023/02/20 10:01:08;;;;;;;4.15;2.75;;;11.10;71.70;;;;;;5020649;28;20596;-61
2023/02/20 10:03:47;;;;;;;4.10;2.90;;;11.10;72.00;;;;;;5019785;28;20038;-60
2023/02/20 10:06:17;;;;;;;5.20;2.70;;;11.10;72.40;;;;;;5019926;28;20472;-60
2023/02/20 10:08:46;;;;;;;4.68;2.63;;;11.30;72.60;;;;;;5021182;28;20033;-60
2023/02/20 10:11:23;;;;;;;4.25;2.30;;;11.30;73.20;;;;;;5024463;28;20103;-60
2023/02/20 10:14:30;;;;;;;3.22;2.20;;;11.40;71.90;;;;;;5020107;28;20486;-62
2023/02/20 10:17:19;;;;;;;6.63;2.50;;;11.50;70.90;;;;;;5020567;28;20042;-59
2023/02/20 10:20:03;;;;;;;3.08;2.10;;;11.60;70.20;;;;;;5021025;28;20041;-60
2023/02/20 10:22:48;;;;;;;3.53;2.42;;;11.70;70.60;;;;;;5020140;28;20073;-61
2023/02/20 10:25:21;;;;;;;;;;;11.80;70.40;;;;;;5021181;28;20034;-61
2023/02/20 10:28:11;;;;;;;4.07;2.28;;;11.90;70.40;;;;;;5020627;28;19917;-60
2023/02/20 10:30:43;;;;;;;4.60;2.53;;;12.00;69.10;;;;;;5019595;28;20026;-60
2023/02/20 10:33:28;;;;;;;5.45;2.60;;;12.00;69.60;;;;;;5019582;28;20136;-62
2023/02/20 10:36:13;;;;;;;;;;;12.10;69.60;;;;;;5021187;28;20044;-61
2023/02/20 10:38:57;;;;;;;2.85;2.22;;;12.20;66.20;;;;;;5019982;28;19913;-62
2023/02/20 10:41:42;;;;;;;3.08;2.17;;;12.20;67.60;;;;;;5020321;28;20041;-59
2023/02/20 10:44:19;;;;;;;3.15;1.90;;;12.30;66.90;;;;;;5019966;28;20550;-60
2023/02/20 10:47:01;;;;;;;4.15;2.30;;;12.30;68.70;;;;;;5017907;28;20041;-61
2023/02/20 10:49:57;;;;;;;3.83;1.63;;;12.40;68.60;;;;;;5018080;28;20038;-60
2023/02/20 10:52:27;;;;;;;3.60;2.20;;;12.50;68.50;;;;;;5019225;28;20500;-61
2023/02/20 10:55:12;;;;;;;3.92;1.95;;;12.50;67.90;;;;;;5020292;28;20113;-61
2023/02/20 10:58:05;;;;;;;3.55;1.90;;;12.60;67.60;;;;;;5019807;28;20034;-60
2023/02/20 11:01:02;;;;;;;4.38;2.30;;;12.70;67.20;;;;;;5012882;28;20025;-60
2023/02/20 11:03:58;;;;;;;3.85;2.20;;;12.80;66.70;;;;;;5019017;28;20037;-59
2023/02/20 11:06:35;;;;;;;3.85;2.05;;;12.90;66.90;;;;;;5018280;28;20037;-60
2023/02/20 11:09:01;;;;;;;2.58;1.83;;;13.00;67.10;;;;;;5019285;28;20030;-60
2023/02/20 11:11:33;;;;;;;3.63;2.03;;;13.00;67.30;;;;;;5021700;28;20034;-60
2023/02/20 11:14:08;;;;;;;4.03;2.00;;;13.10;66.90;;;;;;5019179;28;20104;-59
2023/02/20 11:16:50;;;;;;;4.57;2.15;;;13.20;67.10;;;;;;5019478;28;20128;-59
2023/02/20 11:19:40;;;;;;;5.00;2.20;;;13.30;66.60;;;;;;5019797;28;20611;-61
2023/02/20 11:22:06;;;;;;;4.03;2.13;;;13.40;64.20;;;;;;5019473;28;20029;-58
2023/02/20 11:24:37;;;;;;;1.92;1.70;;;13.50;65.70;;;;;;5019173;28;20045;-61
2023/02/20 11:27:21;;;;;;;3.30;1.70;;;13.50;64.60;;;;;;5018921;28;20037;-60
2023/02/20 11:30:01;;;;;;;4.53;2.03;;;13.60;64.30;;;;;;5019452;28;20048;-61
2023/02/20 11:32:38;;;;;;;3.75;1.65;;;13.60;64.60;;;;;;5019225;28;20048;-60
2023/02/20 11:35:12;;;;;;;2.00;1.40;;;13.70;63.20;;;;;;5018673;28;20378;-60
2023/02/20 11:37:38;;;;;;;3.08;1.60;;;13.80;64.70;;;;;;5019482;28;20088;-59
2023/02/20 11:40:16;;;;;;;2.25;1.77;;;13.90;64.90;;;;;;5018169;28;20399;-62
2023/02/20 11:42:43;;;;;;;3.42;1.80;;;13.90;64.10;;;;;;5017581;28;20401;-60
2023/02/20 11:45:16;;;;;;;4.47;1.83;;;14.00;63.40;;;;;;5018919;28;20064;-60
2023/02/20 11:47:42;;;;;;;2.15;1.73;;;14.10;62.60;;;;;;5019291;28;20077;-58
2023/02/20 11:50:18;;;;;;;2.33;1.60;;;14.10;63.10;;;;;;5018759;28;20053;-59
2023/02/20 11:53:03;;;;;;;3.65;1.35;;;14.10;62.70;;;;;;5017479;28;20030;-61
2023/02/20 11:55:29;;;;;;;2.08;1.67;;;14.10;62.60;;;;;;5018445;28;20088;-61
2023/02/20 11:57:55;;;;;;;1.58;1.48;;;14.20;63.30;;;;;;5019186;28;21232;-62
2023/02/20 12:00:42;;;;;;;3.50;1.92;;;14.30;62.10;;;;;;5018570;28;20526;-62
2023/02/20 12:03:07;;;;;;;1.90;1.63;;;14.30;62.50;;;;;;5018705;28;20038;-61
2023/02/20 12:05:41;;;;;;;2.33;1.70;;;14.30;63.00;;;;;;5018749;28;20036;-60
2023/02/20 12:08:51;;;;;;;2.17;1.55;;;14.40;62.10;;;;;;5019842;28;20120;-61
2023/02/20 12:11:20;;;;;;;2.35;1.52;;;14.50;60.10;;;;;;5007032;28;20042;-60
2023/02/20 12:13:51;;;;;;;3.55;1.35;;;14.60;61.70;;;;;;5017398;28;20130;-59
2023/02/20 12:16:17;;;;;;;1.60;1.30;;;14.70;61.50;;;;;;5019303;28;20045;-60
2023/02/20 12:18:51;;;;;;;1.65;1.50;;;14.70;61.70;;;;;;5021454;28;20375;-61
2023/02/20 12:21:35;;;;;;;1.98;1.15;;;14.80;60.60;;;;;;5022352;28;20148;-60
2023/02/20 12:24:28;;;;;;;1.48;1.25;;;14.90;60.40;;;;;;5023530;28;20034;-61
2023/02/20 12:27:00;;;;;;;4.75;1.30;;;15.00;60.10;;;;;;5022199;28;20041;-61
2023/02/20 12:29:56;;;;;;;2.25;1.30;;;15.00;60.50;;;;;;5022189;28;20417;-61
2023/02/20 12:32:54;;;;;;;2.20;1.23;;;15.10;58.80;;;;;;5022588;28;20041;-62
2023/02/20 12:35:34;;;;;;;2.58;1.50;;;15.20;59.10;;;;;;5019312;28;20543;-62
2023/02/20 12:38:18;;;;;;;5.10;1.63;;;15.20;59.20;;;;;;5022614;28;20038;-61
2023/02/20 12:41:19;;;;;;;3.37;1.13;;;15.30;59.50;;;;;;5022032;28;20049;-61
2023/02/20 12:44:20;;;;;;;2.28;1.40;;;15.30;59.10;;;;;;5006183;28;20045;-59
2023/02/20 12:46:57;;;;;;;2.13;1.00;;;15.40;58.50;;;;;;5022156;28;20472;-60
2023/02/20 12:49:44;;;;;;;1.73;1.05;;;15.40;59.20;;;;;;5022369;28;20022;-61
2023/02/20 12:52:38;;;;;;;1.42;0.95;;;15.50;58.00;;;;;;5021619;28;20400;-60
2023/02/20 12:55:13;;;;;;;1.33;0.77;;;15.50;58.20;;;;;;5021588;28;20117;-59
2023/02/20 12:57:51;;;;;;;1.15;0.90;;;15.60;59.00;;;;;;5022567;28;20084;-59
2023/02/20 13:00:39;;;;;;;2.45;0.90;;;15.60;57.50;;;;;;5022520;28;20037;-59
2023/02/20 13:03:21;;;;;;;1.85;0.98;;;15.70;56.30;;;;;;5021197;28;20038;-62
2023/02/20 13:05:48;;;;;;;1.85;0.90;;;15.70;57.30;;;;;;5020988;28;20502;-60
2023/02/20 13:08:53;;;;;;;1.13;0.80;;;15.80;57.40;;;;;;5021925;28;20099;-60
2023/02/20 13:11:23;;;;;;;1.05;0.95;;;15.80;56.30;;;;;;5021530;28;20080;-59
2023/02/20 13:14:12;;;;;;;2.78;1.00;;;15.90;57.00;;;;;;5021478;28;20539;-61
2023/02/20 13:16:53;;;;;;;3.95;0.93;;;15.90;56.10;;;;;;5015258;28;20037;-60
2023/02/20 13:19:44;;;;;;;4.18;1.08;;;16.00;56.70;;;;;;5020462;28;20030;-59
2023/02/20 13:22:10;;;;;;;2.97;1.00;;;16.00;56.10;;;;;;5020429;28;20499;-62
2023/02/20 13:24:40;;;;;;;3.20;0.90;;;16.00;57.20;;;;;;5021053;28;20057;-60
2023/02/20 13:27:24;;;;;;;3.35;0.82;;;16.10;56.70;;;;;;5021968;28;20505;-62
2023/02/20 13:29:57;;;;;;;2.55;1.00;;;16.10;56.00;;;;;;5020961;28;20045;-61
2023/02/20 13:32:29;;;;;;;4.22;0.90;;;16.10;55.80;;;;;;5021318;28;20112;-62
2023/02/20 13:35:14;;;;;;;0.80;0.70;;;16.20;55.20;;;;;;5022093;28;20029;-62